Accueil
METAR-TAF:

METAR-TAF

Aéroports :

Komatsujima, Japon

latitude: 34-00N, longitude: 134-38E, altitude: 3 m

Observation

Le bulletin a été fait il y a 3 heures et 58 minutes, à 02:13 UTC
Vent 12 kt de sud-est, variant entre est et sud
Température 33°C
Humidité 63%
Pression 1009 hPa
Visibilité 10 km ou plus
Quelques nuages à une hauteur de 2000 ft
Nuages épars à une hauteur de 15000 ft
Nuages fragmentés

METAR: RJOP 250213Z 14012KT 100V190 9999 FEW020 SCT150 BKN/// 33/25 Q1009 RMK 1CU020 3AC150 A2980

Heure: 15:11 (06:11 UTC)


TAF: absent

Observations et prévisions météorologiques de plus de 4000 aéroports (messages METAR et TAF).

Les stations disponibles sont représentées par des disques jaunes et rouges sur la carte.

Passer la souris dessus pour voir le nom de la station.

Cliquer dessus pour voir les observations et prévisions météorologiques.

Pour changer de carte: cliquez sur les boutons verts avec une croix noire pour zoomer, sur le bouton vert avec un tiret pour effectuer un zoom arrière, ou sur les flèches vertes pour les cartes adjacentes.


METAR-TAF: